createdAt,value
2022-10-27T00:00:18.055Z,100973.80
2022-10-27T00:02:46.795Z,100976.61
2022-10-27T00:05:15.780Z,100978.45
2022-10-27T00:07:44.343Z,100979.69
2022-10-27T00:10:12.926Z,100981.74
2022-10-27T00:12:41.534Z,100981.67
2022-10-27T00:15:12.256Z,100980.16
2022-10-27T00:17:41.315Z,100983.65
2022-10-27T00:20:11.310Z,100981.34
2022-10-27T00:22:39.910Z,100986.52
2022-10-27T00:25:09.427Z,100984.83
2022-10-27T00:27:38.132Z,100986.92
2022-10-27T00:30:08.950Z,100991.27
2022-10-27T00:32:37.615Z,100992.80
2022-10-27T00:35:12.479Z,100997.76
2022-10-27T00:37:41.093Z,100996.96
2022-10-27T00:40:12.503Z,100993.25
2022-10-27T00:42:40.999Z,100994.71
2022-10-27T00:45:11.163Z,100997.58
2022-10-27T00:47:41.042Z,100998.56
2022-10-27T00:50:14.876Z,101000.48
2022-10-27T00:52:46.156Z,101002.92
2022-10-27T00:55:18.795Z,101001.45
2022-10-27T00:57:49.837Z,100998.39
2022-10-27T01:00:19.218Z,100994.23
2022-10-27T01:02:48.771Z,101002.02
2022-10-27T01:05:20.841Z,100998.33
2022-10-27T01:07:51.761Z,101001.25
2022-10-27T01:10:20.686Z,101004.20
2022-10-27T01:12:50.195Z,101001.84
2022-10-27T01:15:21.066Z,100999.52
2022-10-27T01:17:58.556Z,100998.48
2022-10-27T01:21:19.764Z,100997.95
2022-10-27T01:24:12.431Z,100993.50
2022-10-27T01:26:50.605Z,100993.65
2022-10-27T01:30:00.321Z,100990.37
2022-10-27T01:32:36.025Z,100985.65
2022-10-27T01:35:12.446Z,100982.08
2022-10-27T01:37:47.305Z,100981.94
2022-10-27T01:40:22.961Z,100986.44
2022-10-27T01:42:55.113Z,100981.46
2022-10-27T01:45:27.099Z,100985.08
2022-10-27T01:47:57.336Z,100986.25
2022-10-27T01:50:36.053Z,100984.94
2022-10-27T01:53:18.012Z,100986.42
2022-10-27T01:56:00.978Z,100988.77
2022-10-27T01:58:48.083Z,100988.66
2022-10-27T02:01:28.571Z,100992.54
2022-10-27T02:04:05.383Z,100992.72
2022-10-27T02:06:41.527Z,100993.95
2022-10-27T02:09:13.930Z,100999.89
2022-10-27T02:11:46.230Z,101001.45
2022-10-27T02:14:15.862Z,100999.89
2022-10-27T02:16:48.362Z,101000.58
2022-10-27T02:19:21.667Z,101001.02
2022-10-27T02:21:54.433Z,101003.36
2022-10-27T02:24:24.264Z,101005.09
2022-10-27T02:26:57.504Z,101006.12
2022-10-27T02:29:31.292Z,101008.92
2022-10-27T02:34:58.778Z,101007.52
2022-10-27T02:37:32.548Z,101005.56
2022-10-27T02:40:01.464Z,101001.73
2022-10-27T02:42:30.090Z,101004.38
2022-10-27T02:44:58.992Z,100998.71
2022-10-27T02:47:27.610Z,101002.96
2022-10-27T02:49:56.459Z,101009.20
2022-10-27T02:52:25.162Z,101012.92
2022-10-27T02:54:53.774Z,101015.71
2022-10-27T02:57:22.406Z,101015.80
2022-10-27T02:59:53.652Z,101011.42
2022-10-27T03:02:23.418Z,101011.81
2022-10-27T03:04:52.489Z,101008.82
2022-10-27T03:07:21.349Z,101009.29
2022-10-27T03:09:50.078Z,101012.80
2022-10-27T03:12:18.687Z,101009.23
2022-10-27T03:14:47.341Z,101012.30
2022-10-27T03:17:16.027Z,101010.68
2022-10-27T03:19:44.635Z,101011.22
2022-10-27T03:22:13.290Z,101012.84
2022-10-27T03:24:42.043Z,101011.80
2022-10-27T03:27:10.691Z,101010.27
2022-10-27T03:29:49.951Z,101014.14
2022-10-27T03:32:26.877Z,101015.39
2022-10-27T03:34:55.635Z,101016.10
2022-10-27T03:37:24.408Z,101018.73
2022-10-27T03:39:53.102Z,101026.43
2022-10-27T03:42:21.651Z,101026.61
2022-10-27T03:44:50.370Z,101028.91
2022-10-27T03:47:19.124Z,101033.02
2022-10-27T03:49:47.793Z,101038.44
2022-10-27T03:52:16.468Z,101037.92
2022-10-27T03:54:45.105Z,101032.12
2022-10-27T03:57:13.727Z,101033.83
2022-10-27T03:59:42.319Z,101029.55
2022-10-27T04:02:11.374Z,101029.58
2022-10-27T04:04:40.281Z,101030.40
2022-10-27T04:07:09.088Z,101031.84
2022-10-27T04:09:37.874Z,101034.23
2022-10-27T04:12:07.424Z,101034.02
2022-10-27T04:14:42.094Z,101036.02
2022-10-27T04:17:10.671Z,101037.46
2022-10-27T04:19:39.264Z,101038.21
2022-10-27T04:22:07.935Z,101041.04
2022-10-27T04:24:40.099Z,101046.42
2022-10-27T04:27:09.546Z,101044.05
2022-10-27T04:29:38.315Z,101046.97
2022-10-27T04:32:07.094Z,101050.70
2022-10-27T04:34:35.806Z,101048.29
2022-10-27T04:37:04.503Z,101052.63
2022-10-27T04:39:33.219Z,101053.73
2022-10-27T04:42:01.865Z,101051.73
2022-10-27T04:44:30.511Z,101052.62
2022-10-27T04:46:59.097Z,101048.94
2022-10-27T04:49:27.794Z,101052.58
2022-10-27T04:51:56.705Z,101051.34
2022-10-27T04:54:25.514Z,101053.00
2022-10-27T04:56:54.201Z,101051.89
2022-10-27T04:59:22.877Z,101052.36
2022-10-27T05:01:51.777Z,101057.23
2022-10-27T05:04:20.707Z,101063.77
2022-10-27T05:06:49.634Z,101065.17
2022-10-27T05:09:18.353Z,101065.87
2022-10-27T05:11:47.052Z,101068.64
2022-10-27T05:14:15.703Z,101072.31
2022-10-27T05:16:45.086Z,101076.48
2022-10-27T05:19:14.050Z,101081.06
2022-10-27T05:21:42.745Z,101084.96
2022-10-27T05:24:11.965Z,101083.13
2022-10-27T05:26:40.700Z,101082.36
2022-10-27T05:29:09.867Z,101083.56
2022-10-27T05:31:38.569Z,101078.48
2022-10-27T05:34:07.683Z,101085.06
2022-10-27T05:36:40.234Z,101090.33
2022-10-27T05:39:11.870Z,101095.11
2022-10-27T05:41:40.878Z,101098.21
2022-10-27T05:44:09.999Z,101106.69
2022-10-27T05:46:38.788Z,101105.25
2022-10-27T05:49:07.470Z,101110.07
2022-10-27T05:51:36.179Z,101110.66
2022-10-27T05:54:05.073Z,101114.14
2022-10-27T05:56:33.746Z,101112.05
2022-10-27T06:01:37.551Z,101109.27
2022-10-27T06:04:06.732Z,101113.67
2022-10-27T06:06:35.851Z,101115.20
2022-10-27T06:09:04.614Z,101115.86
2022-10-27T06:11:33.333Z,101116.73
2022-10-27T06:14:02.078Z,101122.77
2022-10-27T06:16:31.126Z,101125.20
2022-10-27T06:19:00.032Z,101128.96
2022-10-27T06:21:28.712Z,101132.81
2022-10-27T06:23:58.033Z,101132.05
2022-10-27T06:26:27.118Z,101130.77
2022-10-27T06:28:55.849Z,101132.09
2022-10-27T06:31:24.463Z,101132.42
2022-10-27T06:33:53.223Z,101134.63
2022-10-27T06:36:22.137Z,101138.01
2022-10-27T06:38:50.781Z,101140.46
2022-10-27T06:41:19.438Z,101140.35
2022-10-27T06:43:49.340Z,101136.00
2022-10-27T06:46:18.080Z,101138.48
2022-10-27T06:48:46.707Z,101140.46
2022-10-27T06:51:15.370Z,101139.98
2022-10-27T06:53:44.100Z,101138.82
2022-10-27T06:56:12.837Z,101139.90
2022-10-27T06:58:41.563Z,101143.20
2022-10-27T07:01:10.468Z,101147.27
2022-10-27T07:03:39.882Z,101151.31
2022-10-27T07:06:09.143Z,101154.61
2022-10-27T07:08:38.031Z,101152.43
2022-10-27T07:11:07.415Z,101157.09
2022-10-27T07:13:36.255Z,101155.03
2022-10-27T07:16:08.993Z,101157.72
2022-10-27T07:18:38.466Z,101156.23
2022-10-27T07:21:07.376Z,101163.02
2022-10-27T07:23:36.500Z,101165.67
2022-10-27T07:26:05.753Z,101171.68
2022-10-27T07:28:34.906Z,101174.38
2022-10-27T07:31:04.195Z,101176.24
2022-10-27T07:33:33.528Z,101180.94
2022-10-27T07:36:02.248Z,101184.74
2022-10-27T07:38:30.871Z,101187.00
2022-10-27T07:40:59.899Z,101192.64
2022-10-27T07:43:28.757Z,101200.17
2022-10-27T07:45:58.136Z,101197.54
2022-10-27T07:48:27.109Z,101199.06
2022-10-27T07:50:55.975Z,101196.08
2022-10-27T07:53:24.890Z,101197.82
2022-10-27T07:55:56.456Z,101200.61
2022-10-27T07:58:25.313Z,101197.60
2022-10-27T08:00:54.827Z,101199.54
2022-10-27T08:03:25.831Z,101202.21
2022-10-27T08:05:54.552Z,101206.39
2022-10-27T08:08:24.102Z,101206.70
2022-10-27T08:19:06.741Z,101202.35
2022-10-27T08:21:36.442Z,101209.09
2022-10-27T08:24:07.738Z,101209.83
2022-10-27T08:26:36.757Z,101210.32
2022-10-27T08:29:06.271Z,101207.25
2022-10-27T08:31:38.973Z,101208.88
2022-10-27T08:34:07.910Z,101215.88
2022-10-27T08:36:39.579Z,101213.09
2022-10-27T08:39:11.462Z,101208.71
2022-10-27T08:41:46.611Z,101218.29
2022-10-27T08:44:24.569Z,101217.52
2022-10-27T08:46:55.721Z,101217.13
2022-10-27T08:49:31.739Z,101217.92
2022-10-27T08:52:06.650Z,101221.48
2022-10-27T08:54:43.254Z,101215.59
2022-10-27T08:57:21.900Z,101212.56
2022-10-27T08:59:57.367Z,101214.77
2022-10-27T09:02:50.797Z,101216.08
2022-10-27T09:05:34.869Z,101213.95
2022-10-27T09:08:32.887Z,101217.65
2022-10-27T09:11:25.667Z,101214.61
2022-10-27T09:14:49.235Z,101215.94
2022-10-27T09:17:25.413Z,101216.94
2022-10-27T09:20:36.547Z,101214.20
2022-10-27T09:23:11.907Z,101208.19
2022-10-27T09:25:43.712Z,101211.42
2022-10-27T09:28:33.605Z,101210.34
2022-10-27T09:31:03.863Z,101209.18
2022-10-27T09:33:36.386Z,101210.61
2022-10-27T09:36:14.486Z,101213.27
2022-10-27T09:38:43.429Z,101215.34
2022-10-27T09:41:12.420Z,101218.15
2022-10-27T09:44:30.156Z,101220.52
2022-10-27T09:46:58.832Z,101220.96
2022-10-27T09:49:34.738Z,101222.88
2022-10-27T09:52:09.411Z,101223.47
2022-10-27T09:54:42.283Z,101225.23
2022-10-27T09:57:33.761Z,101229.40
2022-10-27T10:00:09.427Z,101219.30
2022-10-27T10:02:47.022Z,101225.38
2022-10-27T10:05:25.087Z,101223.87
2022-10-27T10:08:10.950Z,101224.52
2022-10-27T10:10:40.425Z,101227.55
2022-10-27T10:13:15.093Z,101231.70
2022-10-27T10:15:45.934Z,101229.86
2022-10-27T10:18:28.927Z,101230.91
2022-10-27T10:20:59.681Z,101227.73
2022-10-27T10:23:30.548Z,101231.73
2022-10-27T10:26:00.774Z,101231.05
2022-10-27T10:28:35.113Z,101232.12
2022-10-27T10:31:06.528Z,101230.52
2022-10-27T10:33:38.475Z,101229.75
2022-10-27T10:36:25.611Z,101224.05
2022-10-27T10:38:56.716Z,101217.83
2022-10-27T10:41:26.257Z,101219.82
2022-10-27T10:44:17.342Z,101219.66
2022-10-27T10:46:54.182Z,101215.98
2022-10-27T10:49:25.144Z,101211.73
2022-10-27T10:51:57.465Z,101207.80
2022-10-27T10:54:31.701Z,101206.98
2022-10-27T10:59:36.327Z,101207.89
2022-10-27T11:02:18.548Z,101206.33
2022-10-27T11:04:48.000Z,101206.81
2022-10-27T11:07:25.032Z,101204.77
2022-10-27T11:10:00.558Z,101206.52
2022-10-27T11:12:36.228Z,101207.80
2022-10-27T11:15:25.118Z,101208.41
2022-10-27T11:17:59.412Z,101209.94
2022-10-27T11:20:31.383Z,101214.98
2022-10-27T11:23:03.400Z,101210.75
2022-10-27T11:25:34.700Z,101211.45
2022-10-27T11:28:15.742Z,101211.78
2022-10-27T11:30:51.755Z,101210.26
2022-10-27T11:33:30.062Z,101205.77
2022-10-27T11:36:10.827Z,101208.48
2022-10-27T11:38:52.321Z,101202.73
2022-10-27T11:41:30.481Z,101203.10
2022-10-27T11:44:09.791Z,101204.64
2022-10-27T11:46:43.856Z,101201.77
2022-10-27T11:49:21.150Z,101202.64
2022-10-27T11:51:56.610Z,101202.20
2022-10-27T11:54:26.106Z,101203.81
2022-10-27T11:57:11.517Z,101202.02
2022-10-27T11:59:54.685Z,101200.89
2022-10-27T12:02:52.379Z,101197.77
2022-10-27T12:05:26.934Z,101195.41
2022-10-27T12:07:58.817Z,101194.09
2022-10-27T12:10:35.827Z,101194.29
2022-10-27T12:13:10.579Z,101193.07
2022-10-27T12:15:47.092Z,101193.13
2022-10-27T12:18:22.705Z,101198.27
2022-10-27T12:20:56.192Z,101198.05
2022-10-27T12:23:30.188Z,101197.98
2022-10-27T12:26:07.316Z,101197.63
2022-10-27T12:28:38.196Z,101197.63
2022-10-27T12:31:12.938Z,101200.29
2022-10-27T12:33:48.596Z,101199.59
2022-10-27T12:36:26.189Z,101197.58
2022-10-27T12:39:04.251Z,101198.33
2022-10-27T12:41:38.314Z,101193.60
2022-10-27T12:44:20.254Z,101196.73
2022-10-27T12:47:04.573Z,101196.71
2022-10-27T12:49:41.423Z,101194.52
2022-10-27T12:52:15.819Z,101195.08
2022-10-27T12:55:12.876Z,101192.48
2022-10-27T12:57:53.308Z,101195.41
2022-10-27T13:03:13.355Z,101196.52
2022-10-27T13:06:01.401Z,101195.94
2022-10-27T13:09:03.098Z,101199.23
2022-10-27T13:12:08.238Z,101199.77
2022-10-27T13:15:11.832Z,101197.05
2022-10-27T13:17:52.159Z,101198.34
2022-10-27T13:20:44.294Z,101194.89
2022-10-27T13:23:21.729Z,101194.13
2022-10-27T13:25:58.013Z,101193.98
2022-10-27T13:28:33.537Z,101197.36
2022-10-27T13:31:10.937Z,101196.70
2022-10-27T13:36:30.548Z,101193.02
2022-10-27T13:39:35.016Z,101195.04
2022-10-27T13:42:17.270Z,101190.59
2022-10-27T13:44:50.673Z,101186.94
2022-10-27T13:47:23.221Z,101186.05
2022-10-27T13:49:58.641Z,101179.27
2022-10-27T13:52:31.063Z,101185.64
2022-10-27T13:55:23.213Z,101188.34
2022-10-27T13:58:23.833Z,101193.90
2022-10-27T14:01:19.969Z,101197.20
2022-10-27T14:04:07.131Z,101197.29
2022-10-27T14:06:39.359Z,101196.39
2022-10-27T14:09:29.926Z,101201.17
2022-10-27T14:12:02.687Z,101202.50
2022-10-27T14:14:34.585Z,101204.84
2022-10-27T14:17:15.511Z,101206.69
2022-10-27T14:19:49.717Z,101208.20
2022-10-27T14:22:33.517Z,101210.45
2022-10-27T14:25:14.516Z,101209.15
2022-10-27T14:27:43.346Z,101210.70
2022-10-27T14:30:18.451Z,101216.29
2022-10-27T14:32:47.726Z,101218.63
2022-10-27T14:35:23.544Z,101217.33
2022-10-27T14:37:57.059Z,101217.79
2022-10-27T14:40:36.336Z,101213.98
2022-10-27T14:43:14.430Z,101212.34
2022-10-27T14:45:43.937Z,101216.64
2022-10-27T14:48:24.308Z,101217.55
2022-10-27T14:50:54.564Z,101214.19
2022-10-27T14:53:30.710Z,101217.45
2022-10-27T14:56:17.143Z,101226.60
2022-10-27T14:58:53.722Z,101225.77
2022-10-27T15:01:35.377Z,101224.78
2022-10-27T15:04:17.239Z,101224.13
2022-10-27T15:06:47.683Z,101220.80
2022-10-27T15:09:33.419Z,101217.46
2022-10-27T15:12:06.066Z,101219.12
2022-10-27T15:14:38.527Z,101219.54
2022-10-27T15:17:13.415Z,101218.76
2022-10-27T15:19:47.791Z,101214.47
2022-10-27T15:22:19.572Z,101221.49
2022-10-27T15:24:50.252Z,101221.30
2022-10-27T15:27:20.316Z,101225.60
2022-10-27T15:29:51.417Z,101226.09
2022-10-27T15:32:28.341Z,101230.06
2022-10-27T15:34:58.072Z,101228.91
2022-10-27T15:37:33.310Z,101228.34
2022-10-27T15:40:30.530Z,101229.49
2022-10-27T15:43:01.937Z,101230.18
2022-10-27T15:45:50.060Z,101230.38
2022-10-27T15:48:35.254Z,101232.90
2022-10-27T15:51:11.216Z,101231.13
2022-10-27T15:53:47.913Z,101234.07
2022-10-27T15:56:35.852Z,101233.71
2022-10-27T15:59:19.837Z,101234.95
2022-10-27T16:01:51.395Z,101236.16
2022-10-27T16:04:31.178Z,101237.68
2022-10-27T16:07:31.251Z,101242.15
2022-10-27T16:10:06.020Z,101243.94
2022-10-27T16:12:43.664Z,101249.85
2022-10-27T16:15:22.160Z,101252.63
2022-10-27T16:17:54.233Z,101251.73
2022-10-27T16:20:28.219Z,101256.69
2022-10-27T16:22:57.900Z,101256.75
2022-10-27T16:25:37.788Z,101256.05
2022-10-27T16:28:16.531Z,101255.78
2022-10-27T16:30:45.787Z,101254.35
2022-10-27T16:33:17.683Z,101253.52
2022-10-27T16:35:47.479Z,101253.63
2022-10-27T16:38:16.591Z,101255.66
2022-10-27T16:40:48.184Z,101265.20
2022-10-27T16:43:24.022Z,101265.86
2022-10-27T16:45:53.801Z,101266.29
2022-10-27T16:48:23.097Z,101264.44
2022-10-27T16:50:52.419Z,101259.79
2022-10-27T16:53:23.804Z,101260.66
2022-10-27T16:56:00.015Z,101263.69
2022-10-27T16:58:29.433Z,101263.31
2022-10-27T17:01:03.158Z,101260.90
2022-10-27T17:03:34.429Z,101257.81
2022-10-27T17:06:04.005Z,101262.29
2022-10-27T17:08:35.480Z,101265.79
2022-10-27T17:11:09.688Z,101264.40
2022-10-27T17:13:39.345Z,101266.30
2022-10-27T17:16:13.325Z,101269.86
2022-10-27T17:18:43.417Z,101264.92
2022-10-27T17:21:14.562Z,101261.86
2022-10-27T17:23:45.541Z,101265.98
2022-10-27T17:26:15.924Z,101273.61
2022-10-27T17:28:48.422Z,101271.02
2022-10-27T17:31:22.701Z,101272.52
2022-10-27T17:33:56.621Z,101278.67
2022-10-27T17:36:27.327Z,101273.90
2022-10-27T17:38:59.136Z,101275.11
2022-10-27T17:41:28.826Z,101275.02
2022-10-27T17:43:58.361Z,101272.02
2022-10-27T17:46:27.979Z,101272.19
2022-10-27T17:51:34.781Z,101274.18
2022-10-27T17:54:04.628Z,101269.29
2022-10-27T17:56:35.991Z,101270.78
2022-10-27T17:59:07.397Z,101272.00
2022-10-27T18:01:39.472Z,101276.29
2022-10-27T18:04:10.832Z,101267.94
2022-10-27T18:06:42.129Z,101272.31
2022-10-27T18:09:13.680Z,101270.23
2022-10-27T18:11:45.110Z,101269.39
2022-10-27T18:14:18.219Z,101272.96
2022-10-27T18:16:47.877Z,101269.89
2022-10-27T18:19:17.403Z,101273.17
2022-10-27T18:21:47.974Z,101270.55
2022-10-27T18:24:18.206Z,101269.84
2022-10-27T18:26:48.539Z,101269.73
2022-10-27T18:29:22.234Z,101268.06
2022-10-27T18:31:54.789Z,101270.59
2022-10-27T18:34:25.442Z,101271.32
2022-10-27T18:36:55.848Z,101270.52
2022-10-27T18:39:25.735Z,101268.52
2022-10-27T18:41:55.215Z,101268.34
2022-10-27T18:44:24.845Z,101274.15
2022-10-27T18:46:54.217Z,101272.42
2022-10-27T18:49:43.194Z,101278.50
2022-10-27T18:52:14.145Z,101276.34
2022-10-27T18:54:43.991Z,101274.33
2022-10-27T18:57:14.698Z,101277.55
2022-10-27T18:59:45.365Z,101277.44
2022-10-27T19:02:14.550Z,101277.70
2022-10-27T19:04:43.813Z,101277.02
2022-10-27T19:07:13.187Z,101276.68
2022-10-27T19:09:42.686Z,101274.17
2022-10-27T19:12:12.262Z,101273.89
2022-10-27T19:14:42.139Z,101282.06
2022-10-27T19:17:11.486Z,101281.23
2022-10-27T19:19:41.827Z,101281.95
2022-10-27T19:22:10.887Z,101279.77
2022-10-27T19:24:39.738Z,101277.11
2022-10-27T19:27:09.335Z,101279.00
2022-10-27T19:29:38.683Z,101275.46
2022-10-27T19:32:08.062Z,101277.86
2022-10-27T19:34:38.269Z,101277.83
2022-10-27T19:37:07.668Z,101274.88
2022-10-27T19:39:37.168Z,101272.17
2022-10-27T19:42:07.179Z,101269.71
2022-10-27T19:44:38.012Z,101273.48
2022-10-27T19:47:07.924Z,101271.47
2022-10-27T19:49:37.682Z,101269.84
2022-10-27T19:52:07.468Z,101269.90
2022-10-27T19:54:36.974Z,101270.90
2022-10-27T19:57:06.556Z,101272.67
2022-10-27T19:59:37.188Z,101269.60
2022-10-27T20:02:07.835Z,101271.31
2022-10-27T20:04:39.963Z,101272.13
2022-10-27T20:07:09.934Z,101269.98
2022-10-27T20:09:39.102Z,101275.55
2022-10-27T20:12:09.459Z,101279.84
2022-10-27T20:14:38.753Z,101283.15
2022-10-27T20:17:07.967Z,101282.70
2022-10-27T20:19:38.171Z,101281.63
2022-10-27T20:22:07.516Z,101281.80
2022-10-27T20:24:36.786Z,101283.43
2022-10-27T20:27:05.798Z,101285.99
2022-10-27T20:29:35.841Z,101284.36
2022-10-27T20:32:05.753Z,101281.86
2022-10-27T20:34:39.506Z,101290.41
2022-10-27T20:37:09.078Z,101289.45
2022-10-27T20:39:37.999Z,101297.70
2022-10-27T20:42:07.365Z,101296.99
2022-10-27T20:44:36.101Z,101297.00
2022-10-27T20:47:05.111Z,101296.21
2022-10-27T20:49:33.917Z,101296.90
2022-10-27T20:52:02.729Z,101294.13
2022-10-27T20:54:32.031Z,101291.38
2022-10-27T20:57:00.838Z,101290.62
2022-10-27T20:59:29.521Z,101296.23
2022-10-27T21:01:59.214Z,101296.55
2022-10-27T21:04:28.169Z,101297.05
2022-10-27T21:06:57.266Z,101295.20
2022-10-27T21:09:26.100Z,101292.40
2022-10-27T21:11:54.944Z,101297.31
2022-10-27T21:14:23.774Z,101292.31
2022-10-27T21:16:52.432Z,101294.70
2022-10-27T21:19:21.372Z,101296.08
2022-10-27T21:21:50.141Z,101290.33
2022-10-27T21:24:18.958Z,101292.11
2022-10-27T21:26:47.716Z,101290.20
2022-10-27T21:29:16.653Z,101292.00
2022-10-27T21:31:46.350Z,101290.09
2022-10-27T21:34:15.626Z,101289.96
2022-10-27T21:36:44.424Z,101287.33
2022-10-27T21:39:14.285Z,101289.77
2022-10-27T21:41:43.055Z,101286.80
2022-10-27T21:44:12.146Z,101287.81
2022-10-27T21:46:41.272Z,101283.15
2022-10-27T21:49:12.153Z,101287.02
2022-10-27T21:51:41.890Z,101282.15
2022-10-27T21:54:12.749Z,101290.59
2022-10-27T21:56:43.350Z,101283.13
2022-10-27T21:59:13.433Z,101280.46
2022-10-27T22:01:42.820Z,101276.92
2022-10-27T22:04:11.820Z,101277.10
2022-10-27T22:06:44.288Z,101273.09
2022-10-27T22:09:15.195Z,101277.84
2022-10-27T22:11:44.028Z,101276.66
2022-10-27T22:14:14.087Z,101275.41
2022-10-27T22:16:43.043Z,101271.37
2022-10-27T22:19:12.863Z,101269.79
2022-10-27T22:21:42.937Z,101267.94
2022-10-27T22:24:11.939Z,101264.43
2022-10-27T22:26:41.118Z,101268.66
2022-10-27T22:29:10.183Z,101268.70
2022-10-27T22:31:39.023Z,101270.51
2022-10-27T22:34:09.862Z,101265.66
2022-10-27T22:36:39.026Z,101272.73
2022-10-27T22:39:09.252Z,101272.89
2022-10-27T22:41:38.333Z,101264.85
2022-10-27T22:44:07.522Z,101261.05
2022-10-27T22:46:36.405Z,101257.02
2022-10-27T22:49:05.417Z,101255.26
2022-10-27T22:51:34.543Z,101257.93
2022-10-27T22:54:03.426Z,101253.98
2022-10-27T22:56:34.100Z,101252.23
2022-10-27T22:59:07.968Z,101252.52
2022-10-27T23:01:38.999Z,101249.64
2022-10-27T23:04:11.445Z,101251.73
2022-10-27T23:06:40.660Z,101250.52
2022-10-27T23:09:14.592Z,101252.14
2022-10-27T23:11:44.222Z,101253.48
2022-10-27T23:14:15.172Z,101252.39
2022-10-27T23:16:44.697Z,101252.60
2022-10-27T23:19:14.083Z,101250.95
2022-10-27T23:21:44.135Z,101251.84
2022-10-27T23:24:15.023Z,101247.98
2022-10-27T23:26:43.761Z,101248.84
2022-10-27T23:29:14.450Z,101241.40
2022-10-27T23:31:43.858Z,101244.66
2022-10-27T23:34:12.836Z,101245.94
2022-10-27T23:36:43.913Z,101248.24
2022-10-27T23:39:13.500Z,101240.08
2022-10-27T23:41:42.627Z,101235.72
2022-10-27T23:44:11.639Z,101236.96
2022-10-27T23:46:40.354Z,101238.69
2022-10-27T23:49:09.455Z,101241.30
2022-10-27T23:51:38.333Z,101238.35
2022-10-27T23:54:07.483Z,101238.44
2022-10-27T23:56:36.412Z,101235.73
2022-10-27T23:59:05.283Z,101240.31
